Aeroporto :
LOGIN :

Iscrizione | Disclaimer

   EN    FR    IT 

 










Sommario :    VFR   VFR Marginale   IFR   IFR Intensivo   IFR Molto Intensivo
Visibilità : 
Base nubi : 
>= 8 km
>= 3000ft
5 / 8 km
1000 / 3000 ft
1500m / 5 km
500 / 1000 ft
800 / 1500m
200 / 500 ft
< 800m
< 200 ft
Simboli :   Temporali  Nebbia  Neve Forte  Precipitazioni Forti  Vento > 20 kt
SIGMETs :   Varie  Temporali  Ghiacco  Turbolenza  Onda orograficha  Ceneri Vulcaniche






- Altitudine del aeroporto : 50 ft
- Codice IATA : KOI


EGPA - Kirkwall

ULTIMO METAR :
  • 011450Z 29023KT 9999 SCT021 BKN040 08/03 Q1012

METARs OBSOLETI :
  • 011420Z 29021G31KT 9999 FEW021 BKN040 08/03 Q1012
  • 011350Z 30021KT 9999 FEW025 BKN040 09/04 Q1012
  • 011320Z 30026G37KT 9999 SCT030 09/03 Q1012
  • 011250Z 30024G35KT 9999 FEW020 SCT035 09/03 Q1012
  • 011220Z 30022KT 9999 VCSH SCT010 BKN030 09/05 Q1012

TAF TAF EGPA
Valido dal 01 a 15 ore il 02 a 00 ore UTC


011359Z 0115/0124 29018KT 9999 SCT025
TEMPO 0115/0122 30022G32KT
TEMPO 0122/0124 26030G45KT



MetMap, La meteo Aeronautica in un colpo d'occhio ! - Copyright ORBIFLY Dicembre 2007 - Disclaimer

ORBIFLY MET'MAP TEAM :

Programmazione e sviluppo : Alexandra Zaïnal
Concezione : Baudouin d'Aumeries
Aiuto per la programmazione : Marc-Olivier Méhu
Supporto tecnico e logistico : Manuel Goepfert
Aiuto per la traduzione : Arnaldo La Scala

Contatto : metmap@orbifly.com




FONTI E CREDITI :

   NOAA